sensor_id;sensor_type;location;lat;lon;timestamp;pressure;altitude;pressure_sealevel;temperature;humidity
38616;BME280;24370;51.986;4.666;2023-02-11T00:01:12;103486.22;;;13.09;55.02
38616;BME280;24370;51.986;4.666;2023-02-11T00:03:41;103489.50;;;12.98;55.48
38616;BME280;24370;51.986;4.666;2023-02-11T00:06:07;103482.84;;;13.57;54.81
38616;BME280;24370;51.986;4.666;2023-02-11T00:08:36;103484.47;;;14.48;51.59
38616;BME280;24370;51.986;4.666;2023-02-11T00:11:02;103492.78;;;14.19;52.75
38616;BME280;24370;51.986;4.666;2023-02-11T00:13:28;103479.69;;;14.24;51.66
38616;BME280;24370;51.986;4.666;2023-02-11T00:15:55;103479.41;;;13.60;53.33
38616;BME280;24370;51.986;4.666;2023-02-11T00:18:21;103494.88;;;14.40;50.68
38616;BME280;24370;51.986;4.666;2023-02-11T00:20:46;103488.34;;;14.69;50.00
38616;BME280;24370;51.986;4.666;2023-02-11T00:23:12;103485.81;;;13.72;52.11
38616;BME280;24370;51.986;4.666;2023-02-11T00:25:42;103480.94;;;13.96;53.20
38616;BME280;24370;51.986;4.666;2023-02-11T00:28:08;103482.69;;;13.06;54.22
38616;BME280;24370;51.986;4.666;2023-02-11T00:30:34;103469.94;;;14.17;51.19
38616;BME280;24370;51.986;4.666;2023-02-11T00:32:59;103478.53;;;13.59;54.18
38616;BME280;24370;51.986;4.666;2023-02-11T00:35:25;103463.81;;;14.18;52.78
38616;BME280;24370;51.986;4.666;2023-02-11T00:37:52;103465.19;;;13.48;53.20
38616;BME280;24370;51.986;4.666;2023-02-11T00:40:18;103459.84;;;14.45;50.84
38616;BME280;24370;51.986;4.666;2023-02-11T00:42:43;103456.91;;;13.72;52.46
38616;BME280;24370;51.986;4.666;2023-02-11T00:45:10;103446.19;;;13.19;55.19
38616;BME280;24370;51.986;4.666;2023-02-11T00:47:35;103464.06;;;12.96;55.24
38616;BME280;24370;51.986;4.666;2023-02-11T00:50:02;103452.69;;;13.36;53.62
38616;BME280;24370;51.986;4.666;2023-02-11T00:52:30;103463.00;;;13.29;54.49
38616;BME280;24370;51.986;4.666;2023-02-11T00:54:55;103461.84;;;13.57;53.85
38616;BME280;24370;51.986;4.666;2023-02-11T00:57:20;103465.91;;;13.87;52.58
38616;BME280;24370;51.986;4.666;2023-02-11T00:59:46;103457.44;;;14.05;51.91
38616;BME280;24370;51.986;4.666;2023-02-11T01:02:11;103460.38;;;14.22;51.44
38616;BME280;24370;51.986;4.666;2023-02-11T01:04:36;103462.28;;;14.32;51.39
38616;BME280;24370;51.986;4.666;2023-02-11T01:07:02;103469.84;;;13.63;52.11
38616;BME280;24370;51.986;4.666;2023-02-11T01:09:28;103475.97;;;13.64;52.29
38616;BME280;24370;51.986;4.666;2023-02-11T01:11:54;103478.09;;;13.37;53.58
38616;BME280;24370;51.986;4.666;2023-02-11T01:14:19;103481.00;;;13.97;52.61
38616;BME280;24370;51.986;4.666;2023-02-11T01:16:45;103479.84;;;14.33;51.11
38616;BME280;24370;51.986;4.666;2023-02-11T01:19:10;103474.78;;;13.94;51.17
38616;BME280;24370;51.986;4.666;2023-02-11T01:21:36;103462.22;;;14.26;49.95
38616;BME280;24370;51.986;4.666;2023-02-11T01:24:01;103453.66;;;13.42;52.67
38616;BME280;24370;51.986;4.666;2023-02-11T01:26:26;103440.97;;;14.70;50.14
38616;BME280;24370;51.986;4.666;2023-02-11T01:28:52;103445.03;;;13.96;51.71
38616;BME280;24370;51.986;4.666;2023-02-11T01:31:17;103442.38;;;13.47;53.17
38616;BME280;24370;51.986;4.666;2023-02-11T01:33:42;103449.41;;;13.05;55.65
38616;BME280;24370;51.986;4.666;2023-02-11T01:36:09;103438.84;;;13.94;52.85
38616;BME280;24370;51.986;4.666;2023-02-11T01:38:35;103453.06;;;13.56;53.74
38616;BME280;24370;51.986;4.666;2023-02-11T01:41:07;103446.44;;;13.76;53.65
38616;BME280;24370;51.986;4.666;2023-02-11T01:43:36;103440.63;;;13.95;52.32
38616;BME280;24370;51.986;4.666;2023-02-11T01:49:15;103446.06;;;14.04;51.63
38616;BME280;24370;51.986;4.666;2023-02-11T01:52:04;103446.00;;;14.01;53.21
38616;BME280;24370;51.986;4.666;2023-02-11T01:54:41;103446.31;;;12.85;55.61
38616;BME280;24370;51.986;4.666;2023-02-11T01:57:30;103437.91;;;13.89;52.76
38616;BME280;24370;51.986;4.666;2023-02-11T02:02:55;103445.16;;;14.04;52.83
38616;BME280;24370;51.986;4.666;2023-02-11T02:10:58;103457.75;;;13.29;54.17
38616;BME280;24370;51.986;4.666;2023-02-11T02:13:26;103447.38;;;14.33;51.10
38616;BME280;24370;51.986;4.666;2023-02-11T02:15:52;103437.38;;;13.17;54.21
38616;BME280;24370;51.986;4.666;2023-02-11T02:37:09;103454.72;;;13.09;55.62
38616;BME280;24370;51.986;4.666;2023-02-11T02:39:38;103454.19;;;13.69;53.19
38616;BME280;24370;51.986;4.666;2023-02-11T02:42:04;103458.38;;;13.17;54.24
38616;BME280;24370;51.986;4.666;2023-02-11T02:44:30;103457.03;;;12.95;55.03
38616;BME280;24370;51.986;4.666;2023-02-11T02:46:56;103465.94;;;13.01;56.30
38616;BME280;24370;51.986;4.666;2023-02-11T02:49:21;103465.47;;;13.21;55.76
38616;BME280;24370;51.986;4.666;2023-02-11T02:57:29;103447.53;;;14.42;49.89
38616;BME280;24370;51.986;4.666;2023-02-11T03:07:50;103446.47;;;12.17;59.94
38616;BME280;24370;51.986;4.666;2023-02-11T03:10:31;103443.19;;;12.62;57.75
38616;BME280;24370;51.986;4.666;2023-02-11T03:12:59;103438.47;;;13.28;55.74
38616;BME280;24370;51.986;4.666;2023-02-11T03:15:27;103442.66;;;12.77;56.22
38616;BME280;24370;51.986;4.666;2023-02-11T03:17:57;103444.81;;;12.97;55.93
38616;BME280;24370;51.986;4.666;2023-02-11T03:20:26;103438.66;;;13.83;52.77
38616;BME280;24370;51.986;4.666;2023-02-11T03:23:38;103442.63;;;13.60;53.01
38616;BME280;24370;51.986;4.666;2023-02-11T03:26:27;103438.75;;;12.99;55.05
38616;BME280;24370;51.986;4.666;2023-02-11T03:37:11;103435.75;;;12.81;55.88
38616;BME280;24370;51.986;4.666;2023-02-11T03:39:43;103431.06;;;12.67;56.11
38616;BME280;24370;51.986;4.666;2023-02-11T03:42:10;103429.94;;;12.56;57.52
38616;BME280;24370;51.986;4.666;2023-02-11T03:44:40;103432.28;;;12.44;57.82
38616;BME280;24370;51.986;4.666;2023-02-11T03:47:09;103427.25;;;12.53;58.18
38616;BME280;24370;51.986;4.666;2023-02-11T03:49:38;103420.41;;;13.01;57.25
38616;BME280;24370;51.986;4.666;2023-02-11T03:52:05;103425.44;;;12.90;56.40
38616;BME280;24370;51.986;4.666;2023-02-11T03:54:32;103414.47;;;13.10;56.34
38616;BME280;24370;51.986;4.666;2023-02-11T03:57:00;103421.84;;;12.47;58.09
38616;BME280;24370;51.986;4.666;2023-02-11T03:59:26;103418.50;;;12.16;60.40
38616;BME280;24370;51.986;4.666;2023-02-11T04:01:52;103411.78;;;12.65;57.74
38616;BME280;24370;51.986;4.666;2023-02-11T04:04:17;103418.09;;;13.15;55.27
38616;BME280;24370;51.986;4.666;2023-02-11T04:06:43;103423.31;;;13.57;54.38
38616;BME280;24370;51.986;4.666;2023-02-11T04:09:09;103421.78;;;13.70;52.98
38616;BME280;24370;51.986;4.666;2023-02-11T04:11:35;103415.19;;;13.44;53.17
38616;BME280;24370;51.986;4.666;2023-02-11T04:14:00;103419.84;;;13.16;54.33
38616;BME280;24370;51.986;4.666;2023-02-11T04:16:26;103421.66;;;13.20;54.07
38616;BME280;24370;51.986;4.666;2023-02-11T04:18:51;103421.88;;;13.29;54.08
38616;BME280;24370;51.986;4.666;2023-02-11T04:21:17;103423.25;;;13.12;54.63
38616;BME280;24370;51.986;4.666;2023-02-11T04:23:42;103422.84;;;12.92;54.80
38616;BME280;24370;51.986;4.666;2023-02-11T04:26:08;103427.03;;;12.44;57.67
38616;BME280;24370;51.986;4.666;2023-02-11T04:28:33;103408.16;;;12.60;57.03
38616;BME280;24370;51.986;4.666;2023-02-11T04:30:59;103419.03;;;12.02;58.91
38616;BME280;24370;51.986;4.666;2023-02-11T04:33:25;103421.88;;;12.88;56.55
38616;BME280;24370;51.986;4.666;2023-02-11T04:35:50;103417.88;;;13.05;55.31
38616;BME280;24370;51.986;4.666;2023-02-11T04:38:16;103420.19;;;12.90;54.84
38616;BME280;24370;51.986;4.666;2023-02-11T04:40:41;103415.53;;;13.19;54.84
38616;BME280;24370;51.986;4.666;2023-02-11T04:43:07;103413.47;;;13.04;55.47
38616;BME280;24370;51.986;4.666;2023-02-11T04:45:32;103416.97;;;13.05;55.37
38616;BME280;24370;51.986;4.666;2023-02-11T04:47:58;103418.72;;;12.63;56.74
38616;BME280;24370;51.986;4.666;2023-02-11T04:50:23;103416.34;;;12.74;56.21
38616;BME280;24370;51.986;4.666;2023-02-11T04:52:49;103417.09;;;12.68;56.81
38616;BME280;24370;51.986;4.666;2023-02-11T04:55:14;103425.78;;;12.28;58.09
38616;BME280;24370;51.986;4.666;2023-02-11T04:57:39;103414.19;;;12.56;58.30
38616;BME280;24370;51.986;4.666;2023-02-11T05:00:05;103417.13;;;11.95;60.61
38616;BME280;24370;51.986;4.666;2023-02-11T05:02:31;103423.69;;;12.14;59.97
38616;BME280;24370;51.986;4.666;2023-02-11T05:04:56;103415.56;;;12.40;59.57
38616;BME280;24370;51.986;4.666;2023-02-11T05:07:22;103413.72;;;12.36;60.46
38616;BME280;24370;51.986;4.666;2023-02-11T05:09:47;103407.22;;;12.58;59.64
38616;BME280;24370;51.986;4.666;2023-02-11T05:12:12;103405.28;;;12.89;58.40
38616;BME280;24370;51.986;4.666;2023-02-11T05:14:38;103421.63;;;12.76;58.02
38616;BME280;24370;51.986;4.666;2023-02-11T05:17:03;103427.34;;;11.86;61.61
38616;BME280;24370;51.986;4.666;2023-02-11T05:19:29;103426.78;;;11.98;61.65
38616;BME280;24370;51.986;4.666;2023-02-11T05:21:56;103422.19;;;12.62;61.07
38616;BME280;24370;51.986;4.666;2023-02-11T05:24:21;103427.66;;;12.71;61.38
38616;BME280;24370;51.986;4.666;2023-02-11T05:26:47;103438.41;;;12.08;63.98
38616;BME280;24370;51.986;4.666;2023-02-11T05:29:12;103431.66;;;12.95;60.63
38616;BME280;24370;51.986;4.666;2023-02-11T05:31:37;103426.28;;;12.89;59.68
38616;BME280;24370;51.986;4.666;2023-02-11T05:34:03;103433.22;;;12.87;60.37
38616;BME280;24370;51.986;4.666;2023-02-11T05:36:29;103446.72;;;13.44;56.59
38616;BME280;24370;51.986;4.666;2023-02-11T05:38:54;103436.81;;;13.32;56.34
38616;BME280;24370;51.986;4.666;2023-02-11T05:41:19;103438.38;;;13.66;55.12
38616;BME280;24370;51.986;4.666;2023-02-11T05:43:47;103434.94;;;13.70;55.17
38616;BME280;24370;51.986;4.666;2023-02-11T05:46:15;103430.66;;;13.76;54.77
38616;BME280;24370;51.986;4.666;2023-02-11T05:48:41;103435.38;;;13.95;52.77
38616;BME280;24370;51.986;4.666;2023-02-11T05:51:06;103436.31;;;13.50;52.30
38616;BME280;24370;51.986;4.666;2023-02-11T05:53:31;103438.41;;;13.69;51.95
38616;BME280;24370;51.986;4.666;2023-02-11T05:55:57;103435.72;;;13.22;53.13
38616;BME280;24370;51.986;4.666;2023-02-11T05:58:22;103433.91;;;13.18;53.05
38616;BME280;24370;51.986;4.666;2023-02-11T06:00:48;103434.53;;;13.49;52.08
38616;BME280;24370;51.986;4.666;2023-02-11T06:03:13;103440.50;;;13.40;52.48
38616;BME280;24370;51.986;4.666;2023-02-11T06:05:38;103435.78;;;13.25;53.39
38616;BME280;24370;51.986;4.666;2023-02-11T06:08:04;103431.31;;;13.21;53.81
38616;BME280;24370;51.986;4.666;2023-02-11T06:10:29;103428.84;;;13.27;53.77
38616;BME280;24370;51.986;4.666;2023-02-11T06:12:55;103435.28;;;13.00;55.40
38616;BME280;24370;51.986;4.666;2023-02-11T06:15:20;103436.81;;;13.33;54.88
38616;BME280;24370;51.986;4.666;2023-02-11T06:17:45;103436.00;;;12.93;56.18
38616;BME280;24370;51.986;4.666;2023-02-11T06:20:11;103436.66;;;13.26;55.03
38616;BME280;24370;51.986;4.666;2023-02-11T06:22:37;103440.00;;;13.17;55.59
38616;BME280;24370;51.986;4.666;2023-02-11T06:25:03;103441.19;;;13.31;57.37
38616;BME280;24370;51.986;4.666;2023-02-11T06:27:28;103445.03;;;13.49;56.08
38616;BME280;24370;51.986;4.666;2023-02-11T06:29:54;103438.41;;;13.25;57.11
38616;BME280;24370;51.986;4.666;2023-02-11T06:32:20;103435.16;;;13.35;57.08
38616;BME280;24370;51.986;4.666;2023-02-11T06:34:45;103441.28;;;13.36;56.82
38616;BME280;24370;51.986;4.666;2023-02-11T06:37:11;103438.41;;;13.69;55.26
38616;BME280;24370;51.986;4.666;2023-02-11T06:39:37;103446.28;;;13.25;56.51
38616;BME280;24370;51.986;4.666;2023-02-11T06:42:02;103448.94;;;13.69;55.01
38616;BME280;24370;51.986;4.666;2023-02-11T06:44:28;103449.22;;;13.85;53.51
38616;BME280;24370;51.986;4.666;2023-02-11T06:46:53;103452.53;;;13.74;54.09
38616;BME280;24370;51.986;4.666;2023-02-11T06:49:18;103444.13;;;13.94;53.07
38616;BME280;24370;51.986;4.666;2023-02-11T06:51:44;103445.94;;;13.49;53.55
38616;BME280;24370;51.986;4.666;2023-02-11T06:54:10;103446.88;;;13.53;52.52
38616;BME280;24370;51.986;4.666;2023-02-11T06:56:38;103448.22;;;13.78;53.04
38616;BME280;24370;51.986;4.666;2023-02-11T06:59:04;103460.22;;;13.21;54.88
38616;BME280;24370;51.986;4.666;2023-02-11T07:01:29;103458.47;;;13.21;55.75
38616;BME280;24370;51.986;4.666;2023-02-11T07:03:55;103457.88;;;13.35;55.49
38616;BME280;24370;51.986;4.666;2023-02-11T07:06:22;103461.44;;;13.83;53.71
38616;BME280;24370;51.986;4.666;2023-02-11T07:08:49;103462.59;;;13.97;53.12
38616;BME280;24370;51.986;4.666;2023-02-11T07:11:25;103461.50;;;13.86;52.62
38616;BME280;24370;51.986;4.666;2023-02-11T07:13:52;103456.75;;;13.65;53.13
38616;BME280;24370;51.986;4.666;2023-02-11T07:16:19;103456.44;;;13.49;52.75
38616;BME280;24370;51.986;4.666;2023-02-11T07:18:45;103464.69;;;13.69;51.86
38616;BME280;24370;51.986;4.666;2023-02-11T07:21:13;103458.69;;;13.32;53.11
38616;BME280;24370;51.986;4.666;2023-02-11T07:23:38;103463.28;;;13.39;52.36
38616;BME280;24370;51.986;4.666;2023-02-11T07:26:07;103467.59;;;13.37;52.52
38616;BME280;24370;51.986;4.666;2023-02-11T07:28:33;103460.66;;;13.39;52.44
38616;BME280;24370;51.986;4.666;2023-02-11T07:30:59;103466.25;;;13.58;51.86
38616;BME280;24370;51.986;4.666;2023-02-11T07:33:29;103465.41;;;13.61;51.96
38616;BME280;24370;51.986;4.666;2023-02-11T07:35:54;103475.16;;;13.66;51.45
38616;BME280;24370;51.986;4.666;2023-02-11T07:38:23;103479.94;;;13.42;52.63
38616;BME280;24370;51.986;4.666;2023-02-11T07:40:49;103481.75;;;13.44;52.72
38616;BME280;24370;51.986;4.666;2023-02-11T07:43:14;103486.47;;;13.62;52.39
38616;BME280;24370;51.986;4.666;2023-02-11T07:45:39;103482.19;;;13.67;52.20
38616;BME280;24370;51.986;4.666;2023-02-11T07:48:05;103480.09;;;13.97;52.11
38616;BME280;24370;51.986;4.666;2023-02-11T07:50:30;103481.69;;;13.87;51.93
38616;BME280;24370;51.986;4.666;2023-02-11T07:52:55;103479.28;;;13.99;51.86
38616;BME280;24370;51.986;4.666;2023-02-11T07:55:21;103486.53;;;14.13;51.41
38616;BME280;24370;51.986;4.666;2023-02-11T07:57:46;103488.34;;;14.17;51.55
38616;BME280;24370;51.986;4.666;2023-02-11T08:00:12;103496.19;;;14.14;51.98
38616;BME280;24370;51.986;4.666;2023-02-11T08:02:38;103493.72;;;13.31;54.13
38616;BME280;24370;51.986;4.666;2023-02-11T08:05:03;103492.56;;;13.61;55.00
38616;BME280;24370;51.986;4.666;2023-02-11T08:07:28;103497.53;;;13.91;54.87
38616;BME280;24370;51.986;4.666;2023-02-11T08:09:54;103497.09;;;14.16;53.35
38616;BME280;24370;51.986;4.666;2023-02-11T08:12:19;103504.75;;;14.03;54.38
38616;BME280;24370;51.986;4.666;2023-02-11T08:14:45;103500.97;;;13.87;55.34
38616;BME280;24370;51.986;4.666;2023-02-11T08:17:10;103508.00;;;13.44;56.34
38616;BME280;24370;51.986;4.666;2023-02-11T08:19:35;103506.63;;;14.09;55.22
38616;BME280;24370;51.986;4.666;2023-02-11T08:22:01;103509.34;;;14.14;54.36
38616;BME280;24370;51.986;4.666;2023-02-11T08:24:26;103512.59;;;14.00;56.95
38616;BME280;24370;51.986;4.666;2023-02-11T08:26:52;103513.81;;;14.71;54.53
38616;BME280;24370;51.986;4.666;2023-02-11T08:29:17;103518.28;;;14.75;54.02
38616;BME280;24370;51.986;4.666;2023-02-11T08:31:45;103505.38;;;14.94;53.21
38616;BME280;24370;51.986;4.666;2023-02-11T08:34:13;103526.66;;;14.53;53.63
38616;BME280;24370;51.986;4.666;2023-02-11T08:36:40;103534.50;;;14.50;55.73
38616;BME280;24370;51.986;4.666;2023-02-11T08:39:09;103522.19;;;15.04;54.24
38616;BME280;24370;51.986;4.666;2023-02-11T08:41:36;103524.97;;;15.15;54.00
38616;BME280;24370;51.986;4.666;2023-02-11T08:44:02;103530.91;;;14.45;56.80
38616;BME280;24370;51.986;4.666;2023-02-11T08:46:27;103530.22;;;14.55;56.89
38616;BME280;24370;51.986;4.666;2023-02-11T08:48:52;103533.34;;;13.85;58.50
38616;BME280;24370;51.986;4.666;2023-02-11T08:51:24;103536.81;;;13.82;58.91
38616;BME280;24370;51.986;4.666;2023-02-11T08:53:52;103534.88;;;14.71;57.33
38616;BME280;24370;51.986;4.666;2023-02-11T08:56:18;103533.16;;;14.75;57.57
38616;BME280;24370;51.986;4.666;2023-02-11T08:58:44;103541.03;;;14.23;60.10
38616;BME280;24370;51.986;4.666;2023-02-11T09:01:16;103538.41;;;14.73;57.74
38616;BME280;24370;51.986;4.666;2023-02-11T09:03:41;103535.59;;;15.21;55.01
38616;BME280;24370;51.986;4.666;2023-02-11T09:06:08;103539.22;;;14.69;57.78
38616;BME280;24370;51.986;4.666;2023-02-11T09:08:38;103540.88;;;14.63;57.70
38616;BME280;24370;51.986;4.666;2023-02-11T09:11:04;103538.00;;;15.05;56.36
38616;BME280;24370;51.986;4.666;2023-02-11T09:13:30;103541.03;;;14.23;59.55
38616;BME280;24370;51.986;4.666;2023-02-11T09:15:57;103539.25;;;14.72;57.51
38616;BME280;24370;51.986;4.666;2023-02-11T09:18:23;103547.03;;;15.23;56.75
38616;BME280;24370;51.986;4.666;2023-02-11T09:20:48;103549.47;;;14.03;60.99
38616;BME280;24370;51.986;4.666;2023-02-11T09:23:13;103545.81;;;14.99;57.07
38616;BME280;24370;51.986;4.666;2023-02-11T09:25:39;103547.81;;;15.16;58.10
38616;BME280;24370;51.986;4.666;2023-02-11T09:28:06;103544.69;;;15.44;56.24
38616;BME280;24370;51.986;4.666;2023-02-11T09:30:32;103542.78;;;15.34;56.54
38616;BME280;24370;51.986;4.666;2023-02-11T09:32:57;103555.25;;;15.48;55.76
38616;BME280;24370;51.986;4.666;2023-02-11T09:35:22;103549.81;;;15.32;55.81
38616;BME280;24370;51.986;4.666;2023-02-11T09:37:48;103552.56;;;15.41;56.76
38616;BME280;24370;51.986;4.666;2023-02-11T09:40:14;103555.34;;;15.54;55.04
38616;BME280;24370;51.986;4.666;2023-02-11T09:45:48;103552.16;;;15.80;54.57
38616;BME280;24370;51.986;4.666;2023-02-11T09:48:16;103553.56;;;16.30;53.66
38616;BME280;24370;51.986;4.666;2023-02-11T09:50:49;103556.00;;;16.09;54.64
38616;BME280;24370;51.986;4.666;2023-02-11T09:53:27;103561.88;;;15.18;57.55
38616;BME280;24370;51.986;4.666;2023-02-11T09:55:55;103555.13;;;16.10;53.82
38616;BME280;24370;51.986;4.666;2023-02-11T09:58:25;103552.53;;;16.17;54.21
38616;BME280;24370;51.986;4.666;2023-02-11T10:01:10;103550.59;;;16.00;53.92
38616;BME280;24370;51.986;4.666;2023-02-11T10:06:56;103558.63;;;16.09;54.31
38616;BME280;24370;51.986;4.666;2023-02-11T10:12:37;103574.34;;;16.00;55.38
38616;BME280;24370;51.986;4.666;2023-02-11T10:20:57;103587.97;;;15.64;56.47
38616;BME280;24370;51.986;4.666;2023-02-11T10:23:32;103590.94;;;16.82;53.88
38616;BME280;24370;51.986;4.666;2023-02-11T10:25:58;103592.25;;;16.29;54.47
38616;BME280;24370;51.986;4.666;2023-02-11T10:28:29;103598.09;;;16.00;54.82
38616;BME280;24370;51.986;4.666;2023-02-11T10:31:05;103598.09;;;16.92;52.25
38616;BME280;24370;51.986;4.666;2023-02-11T10:36:18;103607.56;;;16.67;52.43
38616;BME280;24370;51.986;4.666;2023-02-11T10:38:48;103590.56;;;17.59;50.03
38616;BME280;24370;51.986;4.666;2023-02-11T10:41:18;103599.84;;;16.89;52.83
38616;BME280;24370;51.986;4.666;2023-02-11T10:43:45;103605.38;;;16.23;54.12
38616;BME280;24370;51.986;4.666;2023-02-11T10:46:22;103619.81;;;16.62;52.65
38616;BME280;24370;51.986;4.666;2023-02-11T10:48:51;103623.97;;;17.44;51.16
38616;BME280;24370;51.986;4.666;2023-02-11T10:51:21;103619.84;;;18.14;48.35
38616;BME280;24370;51.986;4.666;2023-02-11T10:56:30;103630.03;;;17.28;49.99
38616;BME280;24370;51.986;4.666;2023-02-11T10:58:59;103636.59;;;18.10;49.12
38616;BME280;24370;51.986;4.666;2023-02-11T11:01:40;103640.41;;;16.99;49.95
38616;BME280;24370;51.986;4.666;2023-02-11T11:06:52;103634.50;;;17.38;49.67
38616;BME280;24370;51.986;4.666;2023-02-11T11:09:29;103642.47;;;17.41;50.10
38616;BME280;24370;51.986;4.666;2023-02-11T11:12:23;103631.09;;;16.45;51.17
38616;BME280;24370;51.986;4.666;2023-02-11T11:15:01;103635.13;;;17.00;51.61
38616;BME280;24370;51.986;4.666;2023-02-11T11:17:27;103637.66;;;16.88;51.22
38616;BME280;24370;51.986;4.666;2023-02-11T11:20:13;103640.09;;;16.66;51.35
38616;BME280;24370;51.986;4.666;2023-02-11T11:22:40;103638.16;;;17.65;49.34
38616;BME280;24370;51.986;4.666;2023-02-11T11:25:23;103636.56;;;17.92;47.87
38616;BME280;24370;51.986;4.666;2023-02-11T11:27:52;103634.19;;;16.89;50.58
38616;BME280;24370;51.986;4.666;2023-02-11T11:30:18;103637.88;;;17.16;50.47
38616;BME280;24370;51.986;4.666;2023-02-11T11:32:44;103644.63;;;16.79;49.72
38616;BME280;24370;51.986;4.666;2023-02-11T11:35:25;103642.81;;;16.72;49.86
38616;BME280;24370;51.986;4.666;2023-02-11T11:37:58;103636.81;;;16.01;51.48
38616;BME280;24370;51.986;4.666;2023-02-11T11:40:28;103639.91;;;15.69;52.50
38616;BME280;24370;51.986;4.666;2023-02-11T11:45:31;103634.72;;;17.78;47.36
38616;BME280;24370;51.986;4.666;2023-02-11T11:51:03;103646.13;;;16.50;50.44
38616;BME280;24370;51.986;4.666;2023-02-11T11:56:04;103643.22;;;17.19;48.51
38616;BME280;24370;51.986;4.666;2023-02-11T11:58:32;103636.44;;;17.70;47.54
38616;BME280;24370;51.986;4.666;2023-02-11T12:01:29;103643.31;;;17.34;48.16
38616;BME280;24370;51.986;4.666;2023-02-11T12:07:09;103654.06;;;17.68;47.64
38616;BME280;24370;51.986;4.666;2023-02-11T12:09:40;103655.09;;;16.70;49.11
38616;BME280;24370;51.986;4.666;2023-02-11T12:12:31;103650.84;;;16.83;48.65
38616;BME280;24370;51.986;4.666;2023-02-11T12:18:05;103647.00;;;17.67;47.13
38616;BME280;24370;51.986;4.666;2023-02-11T12:23:23;103658.16;;;17.15;48.38
38616;BME280;24370;51.986;4.666;2023-02-11T12:28:38;103648.44;;;17.16;48.47
38616;BME280;24370;51.986;4.666;2023-02-11T12:33:54;103643.28;;;17.31;48.06
38616;BME280;24370;51.986;4.666;2023-02-11T12:40:11;103643.13;;;17.06;48.67
38616;BME280;24370;51.986;4.666;2023-02-11T12:42:32;103645.94;;;17.31;48.35
38616;BME280;24370;51.986;4.666;2023-02-11T12:45:40;103643.28;;;17.31;48.61
38616;BME280;24370;51.986;4.666;2023-02-11T12:48:15;103632.22;;;18.17;46.41
38616;BME280;24370;51.986;4.666;2023-02-11T12:56:30;103647.81;;;17.58;47.08
38616;BME280;24370;51.986;4.666;2023-02-11T12:58:59;103639.09;;;17.75;46.47
38616;BME280;24370;51.986;4.666;2023-02-11T13:01:33;103644.63;;;18.46;45.11
38616;BME280;24370;51.986;4.666;2023-02-11T13:04:12;103635.78;;;18.38;44.61
38616;BME280;24370;51.986;4.666;2023-02-11T13:07:03;103626.81;;;17.85;46.05
38616;BME280;24370;51.986;4.666;2023-02-11T13:10:04;103630.31;;;17.84;46.82
38616;BME280;24370;51.986;4.666;2023-02-11T13:12:34;103632.66;;;17.25;47.08
38616;BME280;24370;51.986;4.666;2023-02-11T13:15:19;103624.28;;;18.12;45.75
38616;BME280;24370;51.986;4.666;2023-02-11T13:25:48;103611.81;;;17.80;45.95
38616;BME280;24370;51.986;4.666;2023-02-11T13:30:51;103627.00;;;16.78;47.46
38616;BME280;24370;51.986;4.666;2023-02-11T13:33:33;103621.00;;;16.96;48.14
38616;BME280;24370;51.986;4.666;2023-02-11T13:38:26;103618.78;;;17.66;46.26
38616;BME280;24370;51.986;4.666;2023-02-11T13:41:02;103619.75;;;17.82;45.76
38616;BME280;24370;51.986;4.666;2023-02-11T13:43:31;103635.38;;;17.39;47.05
38616;BME280;24370;51.986;4.666;2023-02-11T13:46:09;103617.03;;;17.68;46.34
38616;BME280;24370;51.986;4.666;2023-02-11T13:48:37;103623.88;;;17.26;46.88
38616;BME280;24370;51.986;4.666;2023-02-11T13:51:08;103618.84;;;16.49;48.43
38616;BME280;24370;51.986;4.666;2023-02-11T13:53:55;103605.66;;;17.85;45.99
38616;BME280;24370;51.986;4.666;2023-02-11T13:56:39;103614.91;;;17.02;47.14
38616;BME280;24370;51.986;4.666;2023-02-11T13:59:05;103609.91;;;17.52;46.51
38616;BME280;24370;51.986;4.666;2023-02-11T14:10:58;103610.03;;;17.79;45.44
38616;BME280;24370;51.986;4.666;2023-02-11T14:13:34;103620.81;;;18.38;44.01
38616;BME280;24370;51.986;4.666;2023-02-11T14:16:20;103624.31;;;16.72;46.95
38616;BME280;24370;51.986;4.666;2023-02-11T14:21:23;103613.53;;;17.81;45.15
38616;BME280;24370;51.986;4.666;2023-02-11T14:29:39;103620.47;;;17.49;45.74
38616;BME280;24370;51.986;4.666;2023-02-11T14:32:09;103613.59;;;17.85;45.03
38616;BME280;24370;51.986;4.666;2023-02-11T14:35:35;103616.34;;;18.12;44.22
38616;BME280;24370;51.986;4.666;2023-02-11T14:38:16;103612.81;;;18.21;44.07
38616;BME280;24370;51.986;4.666;2023-02-11T14:43:37;103623.38;;;18.12;43.66
38616;BME280;24370;51.986;4.666;2023-02-11T14:46:03;103633.19;;;18.55;42.86
38616;BME280;24370;51.986;4.666;2023-02-11T14:48:32;103639.94;;;17.63;44.22
38616;BME280;24370;51.986;4.666;2023-02-11T14:51:02;103640.75;;;17.48;44.76
38616;BME280;24370;51.986;4.666;2023-02-11T14:53:31;103637.53;;;18.31;42.74
38616;BME280;24370;51.986;4.666;2023-02-11T14:55:57;103647.69;;;17.32;44.95
38616;BME280;24370;51.986;4.666;2023-02-11T14:58:31;103634.84;;;16.68;46.49
38616;BME280;24370;51.986;4.666;2023-02-11T15:03:36;103636.25;;;17.33;44.49
38616;BME280;24370;51.986;4.666;2023-02-11T15:06:13;103644.94;;;17.17;45.65
38616;BME280;24370;51.986;4.666;2023-02-11T15:09:03;103638.22;;;17.70;44.31
38616;BME280;24370;51.986;4.666;2023-02-11T15:11:33;103646.94;;;17.58;44.55
38616;BME280;24370;51.986;4.666;2023-02-11T15:14:08;103648.84;;;17.87;44.08
38616;BME280;24370;51.986;4.666;2023-02-11T15:16:40;103647.00;;;17.70;43.95
38616;BME280;24370;51.986;4.666;2023-02-11T15:19:06;103655.31;;;16.89;45.74
38616;BME280;24370;51.986;4.666;2023-02-11T15:21:33;103653.81;;;17.28;45.60
38616;BME280;24370;51.986;4.666;2023-02-11T15:24:17;103650.75;;;18.14;44.01